createdAt,value
2023-02-11T09:12:26.826Z,14.02
2023-02-11T09:15:02.989Z,12.48
2023-02-11T09:17:51.265Z,17.67
2023-02-11T09:20:22.317Z,17.65
2023-02-11T09:22:50.056Z,16.77
2023-02-11T09:25:17.478Z,14.45
2023-02-11T09:27:47.101Z,14.75
2023-02-11T09:30:16.341Z,14.40
2023-02-11T09:32:44.179Z,11.80
2023-02-11T09:35:12.362Z,17.67
2023-02-11T09:37:46.268Z,18.08
2023-02-11T09:40:18.596Z,18.23
2023-02-11T09:43:38.023Z,15.85
2023-02-11T09:46:05.789Z,12.90
2023-02-11T09:48:41.928Z,16.33
2023-02-11T09:55:39.340Z,16.05
2023-02-11T09:58:07.129Z,17.63
2023-02-11T10:00:43.114Z,15.50
2023-02-11T10:03:15.714Z,16.33
2023-02-11T10:05:56.282Z,16.70
2023-02-11T10:08:25.736Z,17.10
2023-02-11T10:10:58.196Z,18.67
2023-02-11T10:13:49.086Z,16.60
2023-02-11T10:16:39.679Z,13.75
2023-02-11T10:19:25.077Z,14.30
2023-02-11T10:22:07.012Z,15.07
2023-02-11T10:24:35.297Z,12.70
2023-02-11T10:27:15.054Z,15.57
2023-02-11T10:29:57.495Z,17.38
2023-02-11T10:32:48.569Z,14.85
2023-02-11T10:35:18.318Z,18.75
2023-02-11T10:37:45.528Z,16.88
2023-02-11T10:40:18.698Z,13.95
2023-02-11T10:42:49.384Z,18.17
2023-02-11T10:45:22.205Z,14.40
2023-02-11T10:47:48.824Z,16.92
2023-02-11T10:50:27.657Z,17.25
2023-02-11T10:53:12.365Z,15.95
2023-02-11T10:55:49.010Z,13.60
2023-02-11T10:58:25.546Z,17.67
2023-02-11T11:00:55.206Z,19.85
2023-02-11T11:03:25.301Z,17.10
2023-02-11T11:05:58.456Z,17.58
2023-02-11T11:08:46.686Z,14.73
2023-02-11T11:11:16.150Z,17.33
2023-02-11T11:13:58.246Z,17.73
2023-02-11T11:19:07.536Z,15.15
2023-02-11T11:21:41.222Z,16.35
2023-02-11T11:24:19.932Z,16.45
2023-02-11T11:26:52.895Z,16.42
2023-02-11T11:29:43.395Z,14.05
2023-02-11T11:32:20.716Z,17.73
2023-02-11T11:34:55.595Z,17.65
2023-02-11T11:37:37.064Z,15.48
2023-02-11T11:40:11.420Z,17.83
2023-02-11T11:42:39.784Z,16.73
2023-02-11T11:45:15.163Z,18.75
2023-02-11T11:47:47.653Z,15.55
2023-02-11T11:50:28.985Z,19.17
2023-02-11T11:53:04.511Z,20.53
2023-02-11T11:55:38.691Z,19.98
2023-02-11T11:58:06.926Z,20.42
2023-02-11T12:00:52.357Z,16.10
2023-02-11T12:03:21.782Z,18.45
2023-02-11T12:06:09.485Z,16.98
2023-02-11T12:09:07.898Z,17.65
2023-02-11T12:12:06.280Z,15.13
2023-02-11T12:15:11.719Z,17.42
2023-02-11T12:18:06.604Z,18.27
2023-02-11T12:20:51.669Z,18.13
2023-02-11T12:23:53.319Z,18.20
2023-02-11T12:26:23.443Z,20.40
2023-02-11T12:29:12.995Z,17.50
2023-02-11T12:31:44.072Z,17.30
2023-02-11T12:34:52.821Z,19.37
2023-02-11T12:37:37.823Z,17.33
2023-02-11T12:40:04.353Z,19.88
2023-02-11T12:43:17.409Z,19.95
2023-02-11T12:45:58.354Z,17.88
2023-02-11T12:49:10.462Z,19.27
2023-02-11T12:51:45.990Z,18.25
2023-02-11T12:54:25.478Z,19.13
2023-02-11T12:57:06.748Z,18.88
2023-02-11T12:59:36.334Z,20.37
2023-02-11T13:02:28.416Z,20.90
2023-02-11T13:05:01.076Z,20.88
2023-02-11T13:07:41.712Z,19.38
2023-02-11T13:14:41.050Z,20.20
2023-02-11T13:17:19.878Z,21.00
2023-02-11T13:19:58.554Z,18.90
2023-02-11T13:22:48.667Z,19.08
2023-02-11T13:25:44.176Z,20.45
2023-02-11T13:28:45.554Z,19.83
2023-02-11T13:31:15.996Z,23.67
2023-02-11T13:33:44.325Z,19.52
2023-02-11T13:36:14.665Z,19.88
2023-02-11T13:38:41.830Z,19.67
2023-02-11T13:41:17.466Z,19.50
2023-02-11T13:43:45.214Z,16.75
2023-02-11T13:50:47.784Z,17.10
2023-02-11T13:53:16.183Z,23.05
2023-02-11T13:55:46.123Z,20.50
2023-02-11T13:58:15.414Z,20.02
2023-02-11T14:00:50.197Z,20.33
2023-02-11T14:03:41.868Z,21.10
2023-02-11T14:06:27.253Z,18.07
2023-02-11T14:13:19.627Z,21.83
2023-02-11T14:15:49.703Z,23.10
2023-02-11T14:18:45.587Z,22.20
2023-02-11T14:21:42.666Z,20.08
2023-02-11T14:24:12.960Z,18.35
2023-02-11T14:26:56.690Z,21.60
2023-02-11T14:29:53.804Z,21.42
2023-02-11T14:32:34.936Z,23.00
2023-02-11T14:35:29.561Z,21.33
2023-02-11T14:38:20.812Z,17.23
2023-02-11T14:41:13.620Z,19.30
2023-02-11T14:43:45.368Z,19.13
2023-02-11T14:46:12.022Z,20.98
2023-02-11T14:48:44.721Z,16.63
2023-02-11T14:51:16.068Z,21.92
2023-02-11T14:53:49.988Z,22.42
2023-02-11T14:56:22.431Z,21.75
2023-02-11T14:58:51.821Z,23.27
2023-02-11T15:01:32.571Z,21.83
2023-02-11T15:04:01.283Z,18.45
2023-02-11T15:06:30.850Z,20.27
2023-02-11T15:09:00.942Z,20.73
2023-02-11T15:11:31.766Z,20.70
2023-02-11T15:14:06.927Z,19.90
2023-02-11T15:16:35.026Z,18.60
2023-02-11T15:19:05.254Z,21.70
2023-02-11T15:21:34.256Z,20.58
2023-02-11T15:24:20.410Z,22.85
2023-02-11T15:27:04.657Z,16.45
2023-02-11T15:29:39.899Z,21.15
2023-02-11T15:32:09.531Z,15.63
2023-02-11T15:34:36.471Z,19.75
2023-02-11T15:37:04.370Z,22.85
2023-02-11T15:39:36.718Z,20.30
2023-02-11T15:42:23.264Z,22.20
2023-02-11T15:45:08.925Z,22.55
2023-02-11T15:47:35.920Z,22.63
2023-02-11T15:50:02.959Z,20.30
2023-02-11T15:52:30.131Z,18.02
2023-02-11T15:55:01.543Z,21.23
2023-02-11T15:57:28.905Z,20.60
2023-02-11T15:59:56.296Z,22.77
2023-02-11T16:02:29.970Z,19.88
2023-02-11T16:05:03.757Z,19.42
2023-02-11T16:07:45.279Z,17.75
2023-02-11T16:10:31.269Z,21.42
2023-02-11T16:13:07.028Z,20.17
2023-02-11T16:15:33.860Z,22.27
2023-02-11T16:18:04.134Z,21.13
2023-02-11T16:20:31.019Z,18.90
2023-02-11T16:22:57.742Z,21.08
2023-02-11T16:25:24.320Z,17.83
2023-02-11T16:27:52.881Z,22.63
2023-02-11T16:30:38.255Z,20.58
2023-02-11T16:33:05.466Z,18.83
2023-02-11T16:35:32.389Z,21.60
2023-02-11T16:37:58.930Z,21.92
2023-02-11T16:40:25.501Z,22.05
2023-02-11T16:42:53.371Z,22.67
2023-02-11T16:45:20.028Z,22.45
2023-02-11T16:47:46.841Z,18.30
2023-02-11T16:50:22.223Z,22.25
2023-02-11T16:52:49.207Z,21.23
2023-02-11T16:55:15.927Z,19.05
2023-02-11T16:57:42.500Z,21.10
2023-02-11T17:00:10.330Z,21.77
2023-02-11T17:02:38.559Z,22.40
2023-02-11T17:05:07.681Z,21.00
2023-02-11T17:07:34.275Z,22.08
2023-02-11T17:10:00.918Z,20.90
2023-02-11T17:12:27.657Z,21.85
2023-02-11T17:14:54.336Z,22.00
2023-02-11T17:17:23.515Z,21.73
2023-02-11T17:19:51.106Z,22.85
2023-02-11T17:22:18.456Z,21.98
2023-02-11T17:24:45.013Z,22.35
2023-02-11T17:27:11.924Z,21.20
2023-02-11T17:29:38.528Z,20.80
2023-02-11T17:32:05.218Z,21.48
2023-02-11T17:34:32.429Z,18.55
2023-02-11T17:37:00.149Z,19.52
2023-02-11T17:39:27.530Z,21.33
2023-02-11T17:41:54.113Z,25.50
2023-02-11T17:44:20.714Z,21.38
2023-02-11T17:46:47.367Z,19.75
2023-02-11T17:49:14.061Z,22.80
2023-02-11T17:51:40.876Z,25.77
2023-02-11T17:54:11.122Z,21.27
2023-02-11T17:56:37.840Z,23.95
2023-02-11T17:59:06.226Z,24.67
2023-02-11T18:01:34.070Z,20.45
2023-02-11T18:04:00.954Z,23.02
2023-02-11T18:06:29.071Z,22.63
2023-02-11T18:08:58.033Z,19.52
2023-02-11T18:11:25.844Z,21.83
2023-02-11T18:13:54.479Z,25.10
2023-02-11T18:16:21.960Z,22.85
2023-02-11T18:18:50.165Z,22.73
2023-02-11T18:21:19.877Z,23.48
2023-02-11T18:23:46.985Z,23.33
2023-02-11T18:26:15.592Z,21.15
2023-02-11T18:28:45.308Z,24.52
2023-02-11T18:31:14.088Z,23.38
2023-02-11T18:33:41.637Z,22.38
2023-02-11T18:36:11.059Z,22.25
2023-02-11T18:38:38.472Z,21.20
2023-02-11T18:41:05.532Z,19.52
2023-02-11T18:43:33.701Z,21.33
2023-02-11T18:46:02.300Z,22.58
2023-02-11T18:48:29.152Z,22.70
2023-02-11T18:50:56.368Z,21.30
2023-02-11T18:53:23.664Z,23.17
2023-02-11T18:55:53.153Z,19.40
2023-02-11T18:58:21.250Z,24.13
2023-02-11T19:00:48.817Z,19.33
2023-02-11T19:03:15.983Z,20.02
2023-02-11T19:05:44.143Z,22.77
2023-02-11T19:08:11.119Z,25.73
2023-02-11T19:10:42.879Z,23.15
2023-02-11T19:13:09.768Z,18.20
2023-02-11T19:15:42.068Z,21.70
2023-02-11T19:18:08.860Z,22.08
2023-02-11T19:20:35.501Z,22.52
2023-02-11T19:23:02.037Z,22.02
2023-02-11T19:25:28.592Z,21.67
2023-02-11T19:27:55.151Z,24.15
2023-02-11T19:30:21.821Z,22.27
2023-02-11T19:32:52.446Z,21.83
2023-02-11T19:35:22.021Z,20.73
2023-02-11T19:37:48.718Z,20.38
2023-02-11T19:40:19.197Z,24.73
2023-02-11T19:42:45.754Z,19.02
2023-02-11T19:45:12.562Z,22.50
2023-02-11T19:47:39.331Z,22.98
2023-02-11T19:50:06.635Z,22.65
2023-02-11T19:52:33.235Z,17.13
2023-02-11T19:55:00.785Z,20.05
2023-02-11T19:57:27.305Z,24.77
2023-02-11T19:59:55.039Z,20.73
2023-02-11T20:02:21.729Z,21.70
2023-02-11T20:04:48.523Z,21.83
2023-02-11T20:07:15.158Z,19.02
2023-02-11T20:09:42.559Z,20.75
2023-02-11T20:12:09.794Z,21.92
2023-02-11T20:14:36.497Z,21.67
2023-02-11T20:17:03.375Z,21.88
2023-02-11T20:19:30.685Z,26.02
2023-02-11T20:21:57.415Z,22.52
2023-02-11T20:24:25.329Z,19.40
2023-02-11T20:26:55.309Z,19.42
2023-02-11T20:29:23.452Z,20.80
2023-02-11T20:31:50.666Z,24.05
2023-02-11T20:34:18.133Z,21.92
2023-02-11T20:36:51.531Z,18.88
2023-02-11T20:39:21.604Z,22.45
2023-02-11T20:41:49.076Z,22.75
2023-02-11T20:44:15.764Z,21.35
2023-02-11T20:46:48.259Z,21.48
2023-02-11T20:49:18.949Z,22.65
2023-02-11T20:51:46.153Z,22.95
2023-02-11T20:54:18.204Z,20.40
2023-02-11T20:59:15.148Z,20.67
2023-02-11T21:01:44.678Z,22.40
2023-02-11T21:04:17.438Z,22.30
2023-02-11T21:06:47.351Z,21.92
2023-02-11T21:09:19.909Z,22.02
2023-02-11T21:11:46.891Z,19.23
2023-02-11T21:14:13.921Z,23.10
2023-02-11T21:16:41.247Z,22.27
2023-02-11T21:19:08.018Z,23.92
2023-02-11T21:21:36.263Z,20.67
2023-02-11T21:24:03.329Z,23.25
2023-02-11T21:26:29.944Z,23.92
2023-02-11T21:28:56.801Z,24.30
2023-02-11T21:31:29.161Z,25.08
2023-02-11T21:33:59.271Z,21.33
2023-02-11T21:36:27.746Z,21.02
2023-02-11T21:38:54.570Z,23.52
2023-02-11T21:41:22.492Z,23.73
2023-02-11T21:43:50.252Z,20.48
2023-02-11T21:46:17.627Z,19.30
2023-02-11T21:48:44.449Z,23.00
2023-02-11T21:51:17.439Z,22.38
2023-02-11T21:53:44.376Z,20.02
2023-02-11T21:56:18.400Z,22.30
2023-02-11T21:58:46.309Z,22.23
2023-02-11T22:01:15.780Z,23.75
2023-02-11T22:03:42.989Z,19.70
2023-02-11T22:06:11.572Z,24.65
2023-02-11T22:08:39.535Z,24.08
2023-02-11T22:11:07.741Z,21.60
2023-02-11T22:13:34.753Z,20.25
2023-02-11T22:16:04.586Z,23.15
2023-02-11T22:18:31.762Z,20.27
2023-02-11T22:21:04.380Z,25.35
2023-02-11T22:23:31.087Z,22.00
2023-02-11T22:25:58.723Z,23.20
2023-02-11T22:28:26.141Z,24.25
2023-02-11T22:30:56.955Z,23.58
2023-02-11T22:33:28.022Z,22.63
2023-02-11T22:36:19.197Z,26.13
2023-02-11T22:38:46.657Z,23.90
2023-02-11T22:41:13.436Z,20.25
2023-02-11T22:43:41.578Z,22.08
2023-02-11T22:46:08.757Z,18.33
2023-02-11T22:48:35.836Z,25.38
2023-02-11T22:51:14.947Z,24.33
2023-02-11T22:53:43.674Z,23.05
2023-02-11T22:56:15.844Z,22.13
2023-02-11T22:58:42.886Z,23.60
2023-02-11T23:01:09.752Z,22.23
2023-02-11T23:03:36.615Z,25.15
2023-02-11T23:06:03.441Z,22.73
2023-02-11T23:08:31.061Z,23.38
2023-02-11T23:11:07.055Z,26.42
2023-02-11T23:13:37.866Z,25.40
2023-02-11T23:16:30.703Z,23.33
2023-02-11T23:19:00.330Z,19.70
2023-02-11T23:21:31.381Z,21.60
2023-02-11T23:24:00.677Z,20.40
2023-02-11T23:26:28.659Z,22.20
2023-02-11T23:28:59.026Z,23.65
2023-02-11T23:31:29.547Z,23.85
2023-02-11T23:33:56.613Z,15.60
2023-02-11T23:36:23.535Z,18.80
2023-02-11T23:38:50.726Z,22.55
2023-02-11T23:41:17.656Z,24.08
2023-02-11T23:43:44.892Z,26.17
2023-02-11T23:46:11.772Z,25.35
2023-02-11T23:48:40.302Z,24.27
2023-02-11T23:51:09.532Z,22.63
2023-02-11T23:53:37.691Z,25.92
2023-02-11T23:56:15.838Z,23.15
2023-02-11T23:58:44.657Z,22.10
